Time;durP1;ratioP1;P1;durP2;ratioP2;P2;SDS_P1;SDS_P2;PMS_P1;PMS_P2;Temp;Humidity;BMP_temperature;BMP_pressure;BME280_temperature;BME280_humidity;BME280_pressure;Samples;Min_cycle;Max_cycle;Signal;HPM_P1;HPM_P2
2022/05/04 00:00:05;;;;;;;18.40;7.97;;;;;;;;;;5004966;28;20424;-79
2022/05/04 00:02:31;;;;;;;12.77;6.80;;;;;;;;;;5003696;28;20445;-79
2022/05/04 00:04:57;;;;;;;13.25;7.22;;;;;;;;;;5002478;28;20419;-79
2022/05/04 00:07:24;;;;;;;12.00;6.20;;;;;;;;;;5001314;28;20433;-79
2022/05/04 00:09:51;;;;;;;14.80;6.97;;;;;;;;;;5005568;28;20939;-79
2022/05/04 00:12:18;;;;;;;16.48;7.75;;;;;;;;;;5000890;28;20426;-79
2022/05/04 00:14:44;;;;;;;10.90;6.50;;;;;;;;;;5005061;28;20444;-79
2022/05/04 00:17:10;;;;;;;17.92;7.78;;;;;;;;;;5001763;28;20429;-79
2022/05/04 00:19:36;;;;;;;17.52;8.02;;;;;;;;;;5003327;28;20436;-78
2022/05/04 00:22:03;;;;;;;16.75;8.50;;;;;;;;;;5004018;28;20440;-79
2022/05/04 00:24:29;;;;;;;12.98;7.68;;;;;;;;;;5006584;28;20435;-78
2022/05/04 00:26:57;;;;;;;16.42;8.00;;;;;;;;;;5005896;28;20443;-79
2022/05/04 00:29:23;;;;;;;12.45;8.05;;;;;;;;;;5001916;28;20432;-79
2022/05/04 00:31:50;;;;;;;13.50;8.00;;;;;;;;;;5001205;28;20472;-78
2022/05/04 00:34:16;;;;;;;12.02;7.65;;;;;;;;;;5002602;28;20414;-79
2022/05/04 00:36:42;;;;;;;17.63;8.18;;;;;;;;;;5001640;28;20442;-79
2022/05/04 00:39:08;;;;;;;10.85;6.50;;;;;;;;;;5004659;28;20436;-79
2022/05/04 00:41:35;;;;;;;14.38;7.07;;;;;;;;;;5004216;28;20424;-79
2022/05/04 00:44:02;;;;;;;15.23;7.97;;;;;;;;;;5003551;28;20437;-78
2022/05/04 00:46:28;;;;;;;15.70;7.43;;;;;;;;;;5004470;28;20425;-79
2022/05/04 00:48:55;;;;;;;15.55;8.20;;;;;;;;;;5003328;28;20949;-79
2022/05/04 00:51:22;;;;;;;13.65;7.43;;;;;;;;;;5000735;28;20441;-79
2022/05/04 00:53:48;;;;;;;17.13;8.20;;;;;;;;;;5001912;28;20433;-78
2022/05/04 00:56:15;;;;;;;15.20;7.80;;;;;;;;;;5002163;28;20441;-80
2022/05/04 00:58:55;;;;;;;11.00;8.10;;;;;;;;;;5000037;28;20447;-79
2022/05/04 01:01:24;;;;;;;14.07;8.07;;;;;;;;;;5001636;28;20602;-78
2022/05/04 01:03:50;;;;;;;14.45;7.85;;;;;;;;;;4999660;28;20430;-79
2022/05/04 01:06:16;;;;;;;14.15;8.00;;;;;;;;;;5002504;28;20434;-79
2022/05/04 01:08:43;;;;;;;15.07;7.57;;;;;;;;;;5002859;28;21026;-78
2022/05/04 01:11:09;;;;;;;14.15;7.93;;;;;;;;;;5002814;28;20432;-79
2022/05/04 01:13:35;;;;;;;10.90;6.97;;;;;;;;;;5001976;28;20433;-77
2022/05/04 01:16:02;;;;;;;14.27;8.60;;;;;;;;;;5003316;28;20425;-79
2022/05/04 01:18:29;;;;;;;14.43;8.30;;;;;;;;;;5003082;28;20436;-79
2022/05/04 01:20:56;;;;;;;13.65;8.52;;;;;;;;;;4998758;28;20428;-78
2022/05/04 01:23:23;;;;;;;13.95;7.93;;;;;;;;;;5002379;28;20442;-78
2022/05/04 01:25:53;;;;;;;12.18;8.48;;;;;;;;;;5001923;28;20496;-78
2022/05/04 01:28:19;;;;;;;13.10;7.20;;;;;;;;;;5000959;28;20488;-79
2022/05/04 01:30:45;;;;;;;16.97;9.00;;;;;;;;;;5015321;23;20516;-82
2022/05/04 01:33:12;;;;;;;15.02;8.40;;;;;;;;;;5005273;28;20433;-83
2022/05/04 01:35:38;;;;;;;13.65;7.72;;;;;;;;;;5001522;28;20442;-82
2022/05/04 01:38:05;;;;;;;19.58;9.00;;;;;;;;;;5005521;28;20510;-83
2022/05/04 01:40:32;;;;;;;13.57;8.82;;;;;;;;;;4998898;28;20425;-83
2022/05/04 01:42:59;;;;;;;16.52;9.05;;;;;;;;;;5002206;28;20952;-83
2022/05/04 01:45:25;;;;;;;17.83;8.75;;;;;;;;;;5001605;28;20517;-83
2022/05/04 01:47:52;;;;;;;15.07;7.87;;;;;;;;;;5000113;28;20467;-84
2022/05/04 01:50:18;;;;;;;15.02;7.70;;;;;;;;;;4999243;28;20445;-82
2022/05/04 01:52:44;;;;;;;12.27;7.73;;;;;;;;;;5000205;28;20440;-81
2022/05/04 01:55:11;;;;;;;15.88;8.30;;;;;;;;;;5000685;28;20434;-82
2022/05/04 01:57:39;;;;;;;14.88;7.60;;;;;;;;;;5001725;28;20902;-82
2022/05/04 02:00:06;;;;;;;13.90;7.30;;;;;;;;;;4997994;28;20419;-82
2022/05/04 02:02:33;;;;;;;12.55;7.38;;;;;;;;;;4999795;28;20457;-82
2022/05/04 02:04:59;;;;;;;17.80;7.93;;;;;;;;;;5002152;28;20919;-82
2022/05/04 02:07:25;;;;;;;14.57;7.60;;;;;;;;;;5006683;28;20447;-82
2022/05/04 02:09:52;;;;;;;11.30;6.70;;;;;;;;;;5000565;28;20469;-80
2022/05/04 02:12:18;;;;;;;13.60;6.60;;;;;;;;;;5002589;28;20500;-81
2022/05/04 02:14:46;;;;;;;14.75;6.90;;;;;;;;;;5004216;28;20436;-81
2022/05/04 02:17:12;;;;;;;13.75;6.53;;;;;;;;;;5005284;28;20471;-82
2022/05/04 02:19:38;;;;;;;11.73;6.10;;;;;;;;;;5005056;28;20433;-82
2022/05/04 02:22:05;;;;;;;12.98;6.22;;;;;;;;;;5006689;28;20561;-82
2022/05/04 02:24:31;;;;;;;10.20;5.70;;;;;;;;;;5000798;28;20496;-81
2022/05/04 02:26:57;;;;;;;13.23;5.88;;;;;;;;;;5005303;28;20436;-82
2022/05/04 02:29:23;;;;;;;11.02;5.30;;;;;;;;;;5002094;28;20469;-82
2022/05/04 02:31:51;;;;;;;9.30;5.40;;;;;;;;;;5003811;28;20488;-83
2022/05/04 02:34:17;;;;;;;12.65;5.72;;;;;;;;;;5003804;28;20865;-82
2022/05/04 02:39:27;;;;;;;13.73;5.35;;;;;;;;;;5003361;28;20415;-82
2022/05/04 02:41:55;;;;;;;12.10;6.40;;;;;;;;;;5005903;28;20434;-82
2022/05/04 02:44:21;;;;;;;14.43;5.68;;;;;;;;;;5003377;28;20446;-83
2022/05/04 02:46:48;;;;;;;10.98;5.93;;;;;;;;;;5004640;28;20420;-82
2022/05/04 02:49:16;;;;;;;12.73;5.40;;;;;;;;;;5003948;28;20449;-82
2022/05/04 02:51:42;;;;;;;12.93;5.35;;;;;;;;;;5002468;28;20859;-82
2022/05/04 02:54:08;;;;;;;9.48;4.85;;;;;;;;;;5003438;28;20807;-82
2022/05/04 02:56:34;;;;;;;9.88;4.93;;;;;;;;;;5003892;28;20993;-82
2022/05/04 02:59:01;;;;;;;13.65;5.30;;;;;;;;;;4998089;28;20797;-82
2022/05/04 03:04:11;;;;;;;13.55;5.47;;;;;;;;;;5004984;28;20444;-82
2022/05/04 03:06:40;;;;;;;14.40;5.10;;;;;;;;;;5001087;28;20442;-82
2022/05/04 03:09:06;;;;;;;13.18;4.93;;;;;;;;;;5001076;28;20529;-82
2022/05/04 03:14:17;;;;;;;12.90;5.00;;;;;;;;;;5002541;28;20486;-82
2022/05/04 03:16:44;;;;;;;14.02;5.72;;;;;;;;;;5002951;28;20988;-84
2022/05/04 03:19:10;;;;;;;11.20;5.13;;;;;;;;;;5003590;28;20446;-81
2022/05/04 03:21:36;;;;;;;15.63;6.20;;;;;;;;;;5000326;28;20435;-81
2022/05/04 03:24:04;;;;;;;11.27;5.30;;;;;;;;;;5001843;28;20443;-82
2022/05/04 03:26:31;;;;;;;9.07;4.95;;;;;;;;;;5000449;28;20421;-82
2022/05/04 03:28:57;;;;;;;13.27;6.03;;;;;;;;;;5000618;28;20439;-82
2022/05/04 03:31:23;;;;;;;12.30;5.15;;;;;;;;;;4999783;28;20468;-82
2022/05/04 03:33:50;;;;;;;10.43;5.23;;;;;;;;;;5005317;28;20522;-82
2022/05/04 03:36:16;;;;;;;14.50;5.60;;;;;;;;;;4997937;28;20445;-82
2022/05/04 03:38:44;;;;;;;13.27;5.07;;;;;;;;;;5002158;28;20499;-82
2022/05/04 03:41:11;;;;;;;12.52;5.30;;;;;;;;;;5006895;28;20422;-82
2022/05/04 03:43:38;;;;;;;11.93;5.65;;;;;;;;;;4999735;28;20489;-83
2022/05/04 03:46:13;;;;;;;8.50;4.95;;;;;;;;;;5006280;28;20435;-82
2022/05/04 03:48:40;;;;;;;11.50;5.25;;;;;;;;;;5004164;28;20470;-82
2022/05/04 03:51:06;;;;;;;15.32;4.90;;;;;;;;;;5001784;28;20825;-82
2022/05/04 03:53:32;;;;;;;12.35;5.57;;;;;;;;;;5003708;28;20473;-83
2022/05/04 03:55:58;;;;;;;10.95;4.72;;;;;;;;;;5002565;28;20427;-82
2022/05/04 03:58:26;;;;;;;12.20;4.75;;;;;;;;;;5001546;28;20434;-82
2022/05/04 04:00:52;;;;;;;11.85;4.88;;;;;;;;;;5000037;28;20430;-82
2022/05/04 04:03:18;;;;;;;10.65;5.10;;;;;;;;;;5004240;28;20432;-82
2022/05/04 04:05:45;;;;;;;8.20;4.63;;;;;;;;;;4997236;28;20547;-82
2022/05/04 04:08:11;;;;;;;15.90;5.00;;;;;;;;;;5003547;28;20808;-82
2022/05/04 04:10:37;;;;;;;12.25;5.20;;;;;;;;;;5003997;28;20465;-82
2022/05/04 04:13:06;;;;;;;12.43;4.75;;;;;;;;;;5002205;28;21034;-80
2022/05/04 04:15:34;;;;;;;16.35;5.20;;;;;;;;;;5004158;28;20511;-82
2022/05/04 04:18:00;;;;;;;12.95;5.75;;;;;;;;;;5004748;28;21196;-82
2022/05/04 04:23:22;;;;;;;12.55;5.20;;;;;;;;;;4968605;28;20437;-83
2022/05/04 04:25:48;;;;;;;9.65;4.60;;;;;;;;;;5000072;28;20433;-84
2022/05/04 04:28:14;;;;;;;11.95;5.30;;;;;;;;;;5006976;28;20951;-81
2022/05/04 04:30:42;;;;;;;13.50;6.70;;;;;;;;;;5001888;28;20516;-81
2022/05/04 04:33:08;;;;;;;9.57;5.18;;;;;;;;;;4997483;28;20488;-83
2022/05/04 04:35:35;;;;;;;9.88;5.90;;;;;;;;;;5002242;28;21003;-83
2022/05/04 04:38:01;;;;;;;11.53;6.17;;;;;;;;;;5002704;28;20450;-81
2022/05/04 04:40:28;;;;;;;10.10;5.55;;;;;;;;;;5002891;28;20414;-82
2022/05/04 04:42:55;;;;;;;10.98;6.28;;;;;;;;;;4998090;28;20455;-82
2022/05/04 04:45:21;;;;;;;10.70;5.80;;;;;;;;;;5001766;28;20443;-81
2022/05/04 04:47:49;;;;;;;12.35;6.78;;;;;;;;;;5003587;28;20424;-83
2022/05/04 04:50:16;;;;;;;11.80;7.10;;;;;;;;;;4997076;28;20422;-81
2022/05/04 04:52:43;;;;;;;14.20;6.72;;;;;;;;;;5002973;28;20473;-81
2022/05/04 04:55:09;;;;;;;13.95;7.70;;;;;;;;;;4998910;28;20432;-82
2022/05/04 04:57:36;;;;;;;14.80;7.18;;;;;;;;;;5003871;28;20436;-81
2022/05/04 05:00:03;;;;;;;14.57;8.25;;;;;;;;;;5000068;28;20438;-83
2022/05/04 05:02:29;;;;;;;15.37;8.70;;;;;;;;;;5002844;28;20442;-81
2022/05/04 05:04:57;;;;;;;15.50;8.63;;;;;;;;;;5001466;28;20416;-81
2022/05/04 05:07:23;;;;;;;14.27;7.70;;;;;;;;;;4999815;28;20981;-81
2022/05/04 05:09:49;;;;;;;16.40;8.23;;;;;;;;;;5001865;28;20419;-81
2022/05/04 05:12:16;;;;;;;11.68;8.45;;;;;;;;;;5002594;28;20418;-81
2022/05/04 05:17:28;;;;;;;14.10;7.50;;;;;;;;;;5002984;28;20467;-82
2022/05/04 05:19:54;;;;;;;14.77;8.00;;;;;;;;;;5000715;28;20423;-81
2022/05/04 05:22:21;;;;;;;17.33;7.90;;;;;;;;;;4999023;28;20438;-81
2022/05/04 05:24:48;;;;;;;14.50;8.10;;;;;;;;;;5002281;28;20405;-80
2022/05/04 05:27:15;;;;;;;15.07;8.00;;;;;;;;;;5004268;28;20486;-81
2022/05/04 05:29:41;;;;;;;13.60;7.75;;;;;;;;;;4998727;28;20435;-81
2022/05/04 05:32:08;;;;;;;12.50;7.35;;;;;;;;;;5002147;28;20442;-82
2022/05/04 05:34:34;;;;;;;13.50;8.00;;;;;;;;;;5001057;28;20978;-81
2022/05/04 05:37:01;;;;;;;17.13;7.78;;;;;;;;;;5002488;28;20434;-81
2022/05/04 05:39:28;;;;;;;15.43;7.30;;;;;;;;;;4995283;28;20989;-79
2022/05/04 05:41:54;;;;;;;13.50;6.95;;;;;;;;;;4997990;28;20453;-82
2022/05/04 05:44:21;;;;;;;19.75;8.07;;;;;;;;;;5004991;28;20488;-83
2022/05/04 05:46:47;;;;;;;13.07;7.00;;;;;;;;;;5006592;28;20484;-82
2022/05/04 05:49:13;;;;;;;12.90;6.43;;;;;;;;;;5005323;28;20442;-80
2022/05/04 05:51:40;;;;;;;14.93;6.82;;;;;;;;;;5005122;28;20434;-78
2022/05/04 05:54:06;;;;;;;11.70;6.30;;;;;;;;;;5008235;28;20482;-80
2022/05/04 05:56:33;;;;;;;12.10;6.78;;;;;;;;;;5007793;28;20428;-81
2022/05/04 05:59:00;;;;;;;13.00;6.80;;;;;;;;;;5004671;28;20426;-80
2022/05/04 06:01:26;;;;;;;16.38;7.30;;;;;;;;;;5005311;28;20509;-81
2022/05/04 06:03:52;;;;;;;10.90;6.47;;;;;;;;;;5002361;28;20463;-80
2022/05/04 06:06:19;;;;;;;14.27;6.85;;;;;;;;;;5005741;28;20517;-81
2022/05/04 06:08:45;;;;;;;18.10;7.18;;;;;;;;;;5005045;28;20440;-81
2022/05/04 06:11:11;;;;;;;17.45;7.15;;;;;;;;;;5001496;28;21142;-81
2022/05/04 06:13:39;;;;;;;13.40;6.20;;;;;;;;;;4999069;28;21255;-80
2022/05/04 06:16:05;;;;;;;10.10;6.10;;;;;;;;;;5003688;28;21648;-80
2022/05/04 06:18:32;;;;;;;10.00;5.65;;;;;;;;;;5005588;28;20440;-80
2022/05/04 06:20:59;;;;;;;12.02;5.72;;;;;;;;;;5003696;28;20422;-80
2022/05/04 06:23:25;;;;;;;11.77;6.50;;;;;;;;;;5006501;28;20440;-80
2022/05/04 06:25:51;;;;;;;12.25;6.05;;;;;;;;;;5004437;28;20461;-81
2022/05/04 06:28:17;;;;;;;11.88;5.90;;;;;;;;;;5003752;28;20457;-81
2022/05/04 06:36:13;;;;;;;11.90;5.83;;;;;;;;;;5006427;28;20443;-82
2022/05/04 06:38:39;;;;;;;8.95;5.22;;;;;;;;;;5008342;28;20421;-82
2022/05/04 06:41:06;;;;;;;11.73;5.20;;;;;;;;;;5003964;28;20424;-81
2022/05/04 06:43:32;;;;;;;11.02;5.22;;;;;;;;;;5004550;28;20450;-81
2022/05/04 06:46:01;;;;;;;12.30;5.10;;;;;;;;;;5002622;28;20559;-81
2022/05/04 06:48:27;;;;;;;10.80;4.70;;;;;;;;;;5002266;28;20432;-81
2022/05/04 06:50:54;;;;;;;11.75;5.28;;;;;;;;;;4997221;28;20846;-80
2022/05/04 06:53:20;;;;;;;14.52;6.30;;;;;;;;;;5002905;28;20874;-82
2022/05/04 06:55:46;;;;;;;14.63;5.50;;;;;;;;;;5000748;28;20484;-82
2022/05/04 06:58:12;;;;;;;7.63;4.55;;;;;;;;;;5000113;28;21040;-80
2022/05/04 07:00:39;;;;;;;12.07;4.60;;;;;;;;;;5004871;28;20449;-81
2022/05/04 07:03:06;;;;;;;10.10;5.32;;;;;;;;;;5009385;28;20473;-81
2022/05/04 07:05:32;;;;;;;11.35;5.40;;;;;;;;;;5001955;28;20461;-81
2022/05/04 07:07:59;;;;;;;11.95;4.82;;;;;;;;;;5004485;28;20432;-81
2022/05/04 07:10:25;;;;;;;9.45;4.82;;;;;;;;;;5000466;28;20422;-81
2022/05/04 07:12:53;;;;;;;12.43;5.50;;;;;;;;;;5001158;28;20430;-82
2022/05/04 07:15:19;;;;;;;9.43;4.70;;;;;;;;;;5001310;28;20443;-82
2022/05/04 07:17:45;;;;;;;10.35;4.60;;;;;;;;;;5001943;28;20440;-82
2022/05/04 07:20:13;;;;;;;9.10;4.70;;;;;;;;;;5000745;28;20475;-82
2022/05/04 07:22:39;;;;;;;12.70;5.10;;;;;;;;;;5000584;28;20461;-81
2022/05/04 07:25:06;;;;;;;9.30;5.20;;;;;;;;;;5004678;28;20448;-81
2022/05/04 07:27:32;;;;;;;8.70;4.17;;;;;;;;;;5002555;28;20975;-82
2022/05/04 07:29:59;;;;;;;10.65;4.30;;;;;;;;;;4998538;28;20426;-81
2022/05/04 07:32:25;;;;;;;13.45;4.93;;;;;;;;;;5004859;28;20459;-82
2022/05/04 07:34:51;;;;;;;10.23;4.20;;;;;;;;;;5002254;28;20925;-81
2022/05/04 07:37:19;;;;;;;10.15;3.95;;;;;;;;;;5006462;28;20502;-81
2022/05/04 07:42:39;;;;;;;7.43;3.83;;;;;;;;;;4987599;28;20919;-84
2022/05/04 07:45:08;;;;;;;9.60;4.05;;;;;;;;;;5014990;28;20428;-82
2022/05/04 07:47:35;;;;;;;7.65;4.15;;;;;;;;;;5021915;28;20852;-83
2022/05/04 07:50:03;;;;;;;7.18;4.07;;;;;;;;;;5013287;28;20419;-84
2022/05/04 07:52:30;;;;;;;9.30;4.32;;;;;;;;;;5018861;28;20492;-82
2022/05/04 07:54:56;;;;;;;9.45;4.47;;;;;;;;;;5013886;28;20495;-83
2022/05/04 07:57:23;;;;;;;10.23;4.47;;;;;;;;;;5014099;28;20505;-82
2022/05/04 08:05:13;;;;;;;12.18;5.32;;;;;;;;;;5016794;28;20553;-81
2022/05/04 08:07:41;;;;;;;10.77;4.30;;;;;;;;;;5016389;28;20459;-83
2022/05/04 08:10:07;;;;;;;8.05;4.18;;;;;;;;;;5019141;28;20471;-83
2022/05/04 08:12:35;;;;;;;8.67;4.10;;;;;;;;;;5018870;28;20430;-83
2022/05/04 08:15:01;;;;;;;7.22;4.20;;;;;;;;;;5017089;28;20415;-83
2022/05/04 08:17:27;;;;;;;9.77;4.38;;;;;;;;;;5018619;28;20436;-83
2022/05/04 08:19:54;;;;;;;11.43;5.13;;;;;;;;;;5019989;28;20415;-85
2022/05/04 08:22:20;;;;;;;5.93;3.70;;;;;;;;;;5024747;28;20891;-83
2022/05/04 08:24:48;;;;;;;10.10;4.50;;;;;;;;;;5017148;28;20908;-84
2022/05/04 08:27:14;;;;;;;13.88;4.82;;;;;;;;;;5014119;28;20462;-82
2022/05/04 08:29:41;;;;;;;9.55;4.30;;;;;;;;;;5014070;28;20836;-82
2022/05/04 08:32:07;;;;;;;8.23;3.90;;;;;;;;;;5009930;28;20446;-81
2022/05/04 08:34:33;;;;;;;5.82;4.20;;;;;;;;;;5016016;28;20421;-81
2022/05/04 08:37:00;;;;;;;8.32;4.40;;;;;;;;;;5016919;28;20436;-82
2022/05/04 08:39:26;;;;;;;8.43;4.20;;;;;;;;;;5016052;28;20517;-81
2022/05/04 08:41:54;;;;;;;7.63;3.80;;;;;;;;;;5013671;28;20430;-82
2022/05/04 08:44:21;;;;;;;7.67;4.30;;;;;;;;;;5014967;28;20429;-80
2022/05/04 08:46:47;;;;;;;8.77;4.30;;;;;;;;;;5013159;28;20482;-80
2022/05/04 08:49:13;;;;;;;8.38;3.88;;;;;;;;;;5017299;28;20412;-82
2022/05/04 08:51:40;;;;;;;8.97;4.50;;;;;;;;;;5008546;28;20472;-82
2022/05/04 08:54:08;;;;;;;7.70;3.95;;;;;;;;;;5014026;28;20438;-82
2022/05/04 08:56:35;;;;;;;15.47;4.73;;;;;;;;;;5015730;28;20917;-82
2022/05/04 08:59:03;;;;;;;9.50;4.40;;;;;;;;;;5014455;28;20456;-82
2022/05/04 09:01:29;;;;;;;8.18;4.30;;;;;;;;;;5009684;28;20637;-81
2022/05/04 09:03:57;;;;;;;9.98;4.50;;;;;;;;;;5017603;28;20478;-82
2022/05/04 09:06:28;;;;;;;9.07;3.90;;;;;;;;;;5014827;28;20412;-82
2022/05/04 09:08:55;;;;;;;8.20;3.90;;;;;;;;;;5012710;28;20447;-80
2022/05/04 09:11:22;;;;;;;9.40;4.00;;;;;;;;;;5012818;28;20427;-82
2022/05/04 09:13:48;;;;;;;7.40;3.97;;;;;;;;;;5012729;28;20487;-82
2022/05/04 09:16:26;;;;;;;6.40;3.73;;;;;;;;;;5014215;28;20954;-81
2022/05/04 09:18:52;;;;;;;7.55;3.70;;;;;;;;;;5015180;28;20472;-81
2022/05/04 09:21:21;;;;;;;13.20;4.17;;;;;;;;;;5004804;28;20842;-82
2022/05/04 09:23:52;;;;;;;6.13;4.20;;;;;;;;;;4997435;28;20433;-82
2022/05/04 09:26:19;;;;;;;9.15;3.58;;;;;;;;;;5011502;28;20443;-80
2022/05/04 09:28:49;;;;;;;9.73;4.60;;;;;;;;;;4984496;28;20462;-85
2022/05/04 09:31:18;;;;;;;7.80;4.22;;;;;;;;;;5010732;28;21376;-83
2022/05/04 09:33:52;;;;;;;8.75;4.32;;;;;;;;;;5010294;28;20502;-80
2022/05/04 09:36:29;;;;;;;6.90;4.00;;;;;;;;;;5012415;28;20441;-82
2022/05/04 09:47:20;;;;;;;8.07;4.50;;;;;;;;;;5010497;28;20499;-81
2022/05/04 09:49:49;;;;;;;8.48;4.30;;;;;;;;;;5008273;28;20424;-82
2022/05/04 09:52:15;;;;;;;8.25;4.50;;;;;;;;;;5013306;28;21166;-82
2022/05/04 09:54:42;;;;;;;11.68;4.93;;;;;;;;;;5016184;28;20416;-82
2022/05/04 09:57:08;;;;;;;9.23;4.68;;;;;;;;;;5012783;28;20438;-82
2022/05/04 09:59:36;;;;;;;8.52;5.20;;;;;;;;;;5010504;28;20429;-83
2022/05/04 10:02:03;;;;;;;7.00;4.00;;;;;;;;;;5010776;28;20468;-80
2022/05/04 10:04:32;;;;;;;9.40;4.80;;;;;;;;;;5017410;28;20956;-83
2022/05/04 10:07:00;;;;;;;7.47;4.82;;;;;;;;;;5013135;28;20440;-83
2022/05/04 10:09:27;;;;;;;7.68;4.47;;;;;;;;;;5009942;28;20979;-82
2022/05/04 10:11:57;;;;;;;7.57;4.30;;;;;;;;;;5006775;28;20442;-83
2022/05/04 10:14:23;;;;;;;8.00;4.18;;;;;;;;;;5004715;28;20796;-82
2022/05/04 10:16:53;;;;;;;7.95;4.30;;;;;;;;;;5006534;28;20428;-82
2022/05/04 10:19:21;;;;;;;9.07;4.00;;;;;;;;;;5014925;28;20479;-83
2022/05/04 10:21:49;;;;;;;11.13;4.35;;;;;;;;;;5016641;28;20428;-84
2022/05/04 10:24:18;;;;;;;10.45;4.90;;;;;;;;;;5011500;28;20422;-82
2022/05/04 10:26:45;;;;;;;8.07;4.50;;;;;;;;;;5008130;28;20442;-82
2022/05/04 10:32:07;;;;;;;8.80;4.90;;;;;;;;;;5017241;28;20435;-85
2022/05/04 10:34:33;;;;;;;10.10;4.60;;;;;;;;;;5019353;28;20424;-84
2022/05/04 10:36:59;;;;;;;8.60;4.70;;;;;;;;;;5018285;28;21247;-82
2022/05/04 10:39:27;;;;;;;10.38;4.70;;;;;;;;;;5015634;28;20486;-83
2022/05/04 10:41:53;;;;;;;8.43;4.53;;;;;;;;;;5016008;28;20440;-81
2022/05/04 10:44:40;;;;;;;6.22;4.90;;;;;;;;;;5015472;28;20425;-83
2022/05/04 10:47:06;;;;;;;8.70;5.30;;;;;;;;;;5016172;28;20450;-83
2022/05/04 10:49:34;;;;;;;7.75;5.03;;;;;;;;;;5019848;28;20422;-83
2022/05/04 10:52:04;;;;;;;8.63;5.50;;;;;;;;;;5021549;28;20457;-83
2022/05/04 10:54:33;;;;;;;6.25;4.50;;;;;;;;;;5019291;28;20426;-83
2022/05/04 10:56:59;;;;;;;9.10;5.05;;;;;;;;;;5014960;28;20441;-82
2022/05/04 10:59:26;;;;;;;7.00;4.80;;;;;;;;;;5016750;28;20419;-82
2022/05/04 11:01:56;;;;;;;6.30;4.10;;;;;;;;;;5018803;28;20462;-84
2022/05/04 11:04:23;;;;;;;10.95;5.00;;;;;;;;;;5016732;28;20481;-84
2022/05/04 11:06:56;;;;;;;7.22;5.00;;;;;;;;;;5017264;28;20427;-83
2022/05/04 11:09:24;;;;;;;11.75;5.20;;;;;;;;;;5017903;28;20442;-83
2022/05/04 11:11:52;;;;;;;11.85;5.20;;;;;;;;;;5008762;28;20440;-83
2022/05/04 11:14:22;;;;;;;9.00;4.78;;;;;;;;;;5017594;28;20484;-83
2022/05/04 11:16:49;;;;;;;8.20;4.85;;;;;;;;;;5019023;28;20436;-83
2022/05/04 11:19:15;;;;;;;8.70;5.40;;;;;;;;;;5018610;28;20914;-82
2022/05/04 11:21:42;;;;;;;9.27;5.40;;;;;;;;;;5015840;28;20519;-82
2022/05/04 11:24:09;;;;;;;11.07;5.50;;;;;;;;;;5016055;28;20445;-83
2022/05/04 11:26:37;;;;;;;10.40;5.68;;;;;;;;;;5015499;28;20432;-84
2022/05/04 11:29:08;;;;;;;12.20;5.82;;;;;;;;;;5005243;28;20854;-82
2022/05/04 11:31:34;;;;;;;7.80;5.22;;;;;;;;;;5011254;28;20463;-81
2022/05/04 11:34:02;;;;;;;11.52;5.70;;;;;;;;;;5013449;28;20420;-84
2022/05/04 11:36:28;;;;;;;10.85;6.10;;;;;;;;;;5004775;28;21443;-83
2022/05/04 11:38:54;;;;;;;9.67;5.37;;;;;;;;;;5020715;28;20414;-84
2022/05/04 11:41:21;;;;;;;8.32;6.00;;;;;;;;;;5015055;28;20923;-83
2022/05/04 11:43:48;;;;;;;8.50;5.35;;;;;;;;;;5020381;28;20443;-82
2022/05/04 11:46:16;;;;;;;8.82;5.70;;;;;;;;;;5014098;28;20434;-83
2022/05/04 11:48:43;;;;;;;9.65;5.40;;;;;;;;;;5015837;28;20918;-83
2022/05/04 11:51:10;;;;;;;8.60;5.20;;;;;;;;;;5019350;28;20435;-84
2022/05/04 11:53:36;;;;;;;7.00;5.90;;;;;;;;;;5021023;28;20432;-83
2022/05/04 11:56:04;;;;;;;11.40;5.40;;;;;;;;;;5015969;28;20432;-83
2022/05/04 11:58:31;;;;;;;11.45;5.95;;;;;;;;;;5014077;28;20558;-83
2022/05/04 12:00:58;;;;;;;10.30;6.20;;;;;;;;;;5014909;28;20431;-83
2022/05/04 12:03:26;;;;;;;11.38;6.40;;;;;;;;;;5016807;28;20433;-84
2022/05/04 12:05:53;;;;;;;7.83;6.53;;;;;;;;;;5012992;28;20429;-83
2022/05/04 12:08:19;;;;;;;10.63;6.13;;;;;;;;;;5014420;28;20842;-83
2022/05/04 12:10:46;;;;;;;9.87;5.93;;;;;;;;;;5013427;28;21360;-83
2022/05/04 12:13:14;;;;;;;9.50;5.30;;;;;;;;;;5013648;28;20432;-83
2022/05/04 12:15:41;;;;;;;9.10;6.15;;;;;;;;;;5016474;28;20428;-83
2022/05/04 12:18:08;;;;;;;10.80;6.60;;;;;;;;;;5019194;28;20423;-83
2022/05/04 12:20:35;;;;;;;11.30;5.97;;;;;;;;;;5017325;28;20419;-82
2022/05/04 12:23:02;;;;;;;9.00;6.22;;;;;;;;;;5016427;28;20439;-80
2022/05/04 12:25:29;;;;;;;9.93;6.97;;;;;;;;;;5014500;28;20933;-81
2022/05/04 12:27:56;;;;;;;11.82;7.00;;;;;;;;;;5012849;28;20434;-80
2022/05/04 12:33:10;;;;;;;10.43;6.70;;;;;;;;;;5013195;28;20427;-84
2022/05/04 12:35:39;;;;;;;7.78;6.20;;;;;;;;;;5010167;28;20434;-81
2022/05/04 12:38:06;;;;;;;9.65;6.38;;;;;;;;;;5004205;28;20433;-83
2022/05/04 12:40:32;;;;;;;13.70;7.45;;;;;;;;;;5015490;28;20427;-80
2022/05/04 12:42:59;;;;;;;11.38;6.60;;;;;;;;;;5012474;28;20453;-81
2022/05/04 12:45:25;;;;;;;9.15;6.35;;;;;;;;;;5014373;28;20533;-83
2022/05/04 12:47:52;;;;;;;11.40;7.15;;;;;;;;;;5018492;28;20416;-83
2022/05/04 12:50:20;;;;;;;10.40;6.80;;;;;;;;;;5015858;28;20425;-83
2022/05/04 12:52:48;;;;;;;11.07;7.05;;;;;;;;;;5015395;28;20440;-83
2022/05/04 12:55:14;;;;;;;11.80;6.70;;;;;;;;;;5012659;28;20528;-84
2022/05/04 12:57:40;;;;;;;9.80;6.60;;;;;;;;;;5016522;28;20530;-81
2022/05/04 13:00:07;;;;;;;8.63;6.75;;;;;;;;;;5012235;28;20428;-82
2022/05/04 13:02:33;;;;;;;10.65;7.43;;;;;;;;;;5015118;28;20444;-82
2022/05/04 13:05:00;;;;;;;15.90;6.90;;;;;;;;;;5014293;28;20427;-81
2022/05/04 13:07:26;;;;;;;10.10;6.35;;;;;;;;;;5017046;28;20436;-83
2022/05/04 13:09:53;;;;;;;10.40;6.68;;;;;;;;;;5012223;28;20429;-81
2022/05/04 13:12:20;;;;;;;9.45;6.40;;;;;;;;;;5009958;28;20498;-83
2022/05/04 13:14:46;;;;;;;13.20;6.03;;;;;;;;;;5009478;28;20448;-83
2022/05/04 13:17:13;;;;;;;11.98;7.80;;;;;;;;;;5017687;28;20412;-82
2022/05/04 13:19:39;;;;;;;10.07;6.60;;;;;;;;;;5012644;28;20437;-84
2022/05/04 13:22:05;;;;;;;12.15;7.05;;;;;;;;;;5017348;28;20485;-83
2022/05/04 13:24:31;;;;;;;12.15;7.82;;;;;;;;;;5010596;28;20436;-83
2022/05/04 13:26:59;;;;;;;12.30;7.55;;;;;;;;;;5016198;28;20916;-83
2022/05/04 13:29:25;;;;;;;10.60;6.97;;;;;;;;;;5011451;28;20430;-81
2022/05/04 13:31:51;;;;;;;10.00;6.80;;;;;;;;;;5010677;28;20440;-82
2022/05/04 13:34:18;;;;;;;11.63;7.10;;;;;;;;;;5008859;28;20440;-81
2022/05/04 13:36:44;;;;;;;9.25;7.03;;;;;;;;;;5004697;28;20442;-81
2022/05/04 13:39:10;;;;;;;9.80;6.80;;;;;;;;;;5010036;28;20429;-81
2022/05/04 13:41:37;;;;;;;11.50;6.97;;;;;;;;;;5011951;23;1101830;-81
2022/05/04 13:44:05;;;;;;;13.88;7.25;;;;;;;;;;5007626;28;20433;-81
2022/05/04 13:46:31;;;;;;;9.77;7.22;;;;;;;;;;5011284;28;20927;-80
2022/05/04 13:48:57;;;;;;;12.43;7.68;;;;;;;;;;5009265;28;20438;-81
2022/05/04 13:54:23;;;;;;;10.63;6.00;;;;;;;;;;4951400;28;20427;-82
2022/05/04 13:56:49;;;;;;;9.02;5.40;;;;;;;;;;4947811;29;20441;-82
2022/05/04 13:59:17;;;;;;;8.00;5.75;;;;;;;;;;4973783;28;20496;-81
2022/05/04 14:01:43;;;;;;;9.90;5.40;;;;;;;;;;5008057;28;20434;-83
2022/05/04 14:04:10;;;;;;;8.10;5.40;;;;;;;;;;5008551;28;20796;-81
2022/05/04 14:06:36;;;;;;;11.10;6.30;;;;;;;;;;5012874;28;20819;-82
2022/05/04 14:09:02;;;;;;;12.35;7.50;;;;;;;;;;5001148;28;20435;-82
2022/05/04 14:11:28;;;;;;;12.07;7.90;;;;;;;;;;5008615;28;20449;-82
2022/05/04 14:15:01;;;;;;;11.00;7.55;;;;;;;;;;5011925;28;20408;-82
2022/05/04 14:16:42;;;;;;;10.35;7.20;;;;;;;;;;5005500;28;20422;-81
2022/05/04 14:19:09;;;;;;;10.70;7.80;;;;;;;;;;5007579;28;20803;-82
2022/05/04 14:21:35;;;;;;;10.63;7.68;;;;;;;;;;5007138;28;20914;-81
2022/05/04 14:24:01;;;;;;;8.27;7.00;;;;;;;;;;5005823;28;20418;-82
2022/05/04 14:26:27;;;;;;;12.38;7.70;;;;;;;;;;5008922;28;20457;-81
2022/05/04 14:28:54;;;;;;;9.85;6.95;;;;;;;;;;5006877;28;20896;-82
2022/05/04 14:31:22;;;;;;;11.48;6.30;;;;;;;;;;5008357;28;20483;-81
2022/05/04 14:33:50;;;;;;;11.70;7.60;;;;;;;;;;5004685;28;20985;-82
2022/05/04 14:36:16;;;;;;;11.38;7.65;;;;;;;;;;5008822;28;20647;-82
2022/05/04 14:38:43;;;;;;;9.57;7.10;;;;;;;;;;5004987;28;20434;-82
2022/05/04 14:41:09;;;;;;;11.10;7.80;;;;;;;;;;5005414;28;20907;-81
2022/05/04 14:43:36;;;;;;;10.32;7.60;;;;;;;;;;5002335;28;20440;-82
2022/05/04 14:46:02;;;;;;;12.50;6.90;;;;;;;;;;5009476;28;20434;-82
2022/05/04 14:48:28;;;;;;;9.20;5.95;;;;;;;;;;5007763;28;20434;-82
2022/05/04 14:50:57;;;;;;;9.45;6.38;;;;;;;;;;5011053;28;20432;-81
2022/05/04 14:53:23;;;;;;;8.20;5.30;;;;;;;;;;5003814;28;20422;-82
2022/05/04 14:55:51;;;;;;;6.18;5.22;;;;;;;;;;5005831;28;20924;-80
2022/05/04 14:58:17;;;;;;;9.68;5.90;;;;;;;;;;5009260;28;20424;-81
2022/05/04 15:00:44;;;;;;;7.80;5.50;;;;;;;;;;5006105;28;20422;-81
2022/05/04 15:05:53;;;;;;;8.38;5.00;;;;;;;;;;5003079;28;20447;-82
2022/05/04 15:08:21;;;;;;;10.75;5.65;;;;;;;;;;5009297;28;20429;-81
2022/05/04 15:10:47;;;;;;;9.55;6.00;;;;;;;;;;5004714;28;20445;-81
2022/05/04 15:13:14;;;;;;;8.23;5.07;;;;;;;;;;5010307;28;20413;-81
2022/05/04 15:15:40;;;;;;;9.60;5.28;;;;;;;;;;5003691;28;20426;-80
2022/05/04 15:18:06;;;;;;;8.43;5.03;;;;;;;;;;5006868;28;20421;-81